Time;durP1;ratioP1;P1;durP2;ratioP2;P2;SDS_P1;SDS_P2;PMS_P1;PMS_P2;Temp;Humidity;BMP_temperature;BMP_pressure;BME280_temperature;BME280_humidity;BME280_pressure;Samples;Min_cycle;Max_cycle;Signal;HPM_P1;HPM_P2
2021/06/16 00:02:20;;;;;;;21.97;20.50;;;;;;;;;;6278629;22;20365;-82
2021/06/16 00:04:47;;;;;;;22.90;21.03;;;;;;;;;;6279103;22;20391;-83
2021/06/16 00:07:15;;;;;;;22.63;20.90;;;;;;;;;;6278577;22;20859;-82
2021/06/16 00:09:42;;;;;;;22.00;20.40;;;;;;;;;;6279026;22;20713;-82
2021/06/16 00:12:10;;;;;;;22.40;20.50;;;;;;;;;;6278874;22;20692;-83
2021/06/16 00:14:38;;;;;;;22.40;21.00;;;;;;;;;;6278675;22;20876;-83
2021/06/16 00:17:05;;;;;;;23.53;21.80;;;;;;;;;;6277875;22;20416;-83
2021/06/16 00:19:34;;;;;;;22.17;20.63;;;;;;;;;;6278410;22;20389;-83
2021/06/16 00:22:02;;;;;;;23.70;22.03;;;;;;;;;;6278873;22;20891;-83
2021/06/16 00:24:29;;;;;;;22.10;20.77;;;;;;;;;;6278671;22;20370;-83
2021/06/16 00:26:56;;;;;;;22.77;21.17;;;;;;;;;;6278091;22;20362;-82
2021/06/16 00:29:24;;;;;;;23.00;21.07;;;;;;;;;;6278456;22;20381;-83
2021/06/16 00:31:51;;;;;;;21.70;20.40;;;;;;;;;;6278423;22;20925;-82
2021/06/16 00:34:19;;;;;;;22.17;20.77;;;;;;;;;;6252022;22;20892;-83
2021/06/16 00:36:47;;;;;;;21.77;20.40;;;;;;;;;;6278598;22;20419;-83
2021/06/16 00:39:15;;;;;;;22.93;21.43;;;;;;;;;;6278633;22;20445;-83
2021/06/16 00:41:44;;;;;;;22.70;21.20;;;;;;;;;;6278644;22;20377;-82
2021/06/16 00:44:11;;;;;;;23.07;21.37;;;;;;;;;;6278521;22;20703;-83
2021/06/16 00:46:39;;;;;;;22.77;21.20;;;;;;;;;;6278131;22;20399;-82
2021/06/16 00:49:06;;;;;;;22.70;21.40;;;;;;;;;;6278292;22;20373;-83
2021/06/16 00:51:34;;;;;;;22.10;20.60;;;;;;;;;;6278591;22;20375;-82
2021/06/16 00:54:09;;;;;;;23.07;21.37;;;;;;;;;;6278499;22;20367;-83
2021/06/16 00:56:37;;;;;;;22.70;21.30;;;;;;;;;;6278104;22;20380;-83
2021/06/16 00:59:04;;;;;;;22.60;20.90;;;;;;;;;;6278155;22;20409;-83
2021/06/16 01:01:33;;;;;;;23.40;21.80;;;;;;;;;;6278309;22;20387;-82
2021/06/16 01:04:05;;;;;;;22.80;21.30;;;;;;;;;;6277432;22;20423;-82
2021/06/16 01:06:37;;;;;;;22.87;21.40;;;;;;;;;;6277882;22;20372;-82
2021/06/16 01:09:08;;;;;;;22.30;20.90;;;;;;;;;;6278307;22;20395;-82
2021/06/16 01:11:38;;;;;;;21.60;20.33;;;;;;;;;;6277931;22;20369;-82
2021/06/16 01:14:10;;;;;;;22.17;20.90;;;;;;;;;;6277961;22;20392;-82
2021/06/16 01:16:39;;;;;;;24.10;22.47;;;;;;;;;;6278206;22;20426;-82
2021/06/16 01:19:09;;;;;;;23.03;21.40;;;;;;;;;;6278253;22;20437;-82
2021/06/16 01:21:38;;;;;;;21.90;20.60;;;;;;;;;;6277889;22;20849;-81
2021/06/16 01:24:09;;;;;;;22.67;21.37;;;;;;;;;;6277425;22;20736;-81
2021/06/16 01:26:39;;;;;;;22.03;20.73;;;;;;;;;;6277581;22;20370;-82
2021/06/16 01:29:12;;;;;;;22.47;21.03;;;;;;;;;;6251113;22;20384;-82
2021/06/16 01:31:40;;;;;;;22.10;20.70;;;;;;;;;;6278015;22;20683;-82
2021/06/16 01:34:08;;;;;;;22.30;20.80;;;;;;;;;;6278130;22;20402;-82
2021/06/16 01:36:35;;;;;;;22.83;21.43;;;;;;;;;;6277958;22;20390;-82
2021/06/16 01:39:03;;;;;;;21.67;20.17;;;;;;;;;;6277847;22;20415;-82
2021/06/16 01:41:30;;;;;;;22.23;20.93;;;;;;;;;;6277510;22;20372;-82
2021/06/16 01:44:00;;;;;;;23.40;21.90;;;;;;;;;;6277953;22;20405;-82
2021/06/16 01:46:27;;;;;;;22.53;20.90;;;;;;;;;;6277716;22;20365;-82
2021/06/16 01:48:55;;;;;;;22.20;20.97;;;;;;;;;;6277795;22;20401;-83
2021/06/16 01:51:23;;;;;;;22.10;20.70;;;;;;;;;;6277652;22;20856;-83
2021/06/16 01:53:51;;;;;;;22.40;20.80;;;;;;;;;;6277902;22;20375;-83
2021/06/16 01:56:19;;;;;;;22.80;21.13;;;;;;;;;;6277893;22;20377;-82
2021/06/16 01:58:47;;;;;;;22.77;21.10;;;;;;;;;;6277377;22;20444;-82
2021/06/16 02:01:17;;;;;;;22.73;21.27;;;;;;;;;;6277234;22;20381;-83
2021/06/16 02:03:44;;;;;;;23.43;21.53;;;;;;;;;;6277803;22;20371;-83
2021/06/16 02:06:13;;;;;;;22.90;21.37;;;;;;;;;;6277435;22;20403;-83
2021/06/16 02:08:42;;;;;;;23.33;21.67;;;;;;;;;;6250779;22;20402;-82
2021/06/16 02:11:09;;;;;;;21.63;20.33;;;;;;;;;;6277079;22;20737;-83
2021/06/16 02:13:39;;;;;;;22.07;20.77;;;;;;;;;;6277674;22;20686;-83
2021/06/16 02:16:08;;;;;;;22.20;20.80;;;;;;;;;;6277406;22;20366;-82
2021/06/16 02:18:39;;;;;;;22.47;21.10;;;;;;;;;;6277400;22;20494;-83
2021/06/16 02:21:07;;;;;;;22.57;21.13;;;;;;;;;;6277795;22;20398;-83
2021/06/16 02:23:34;;;;;;;22.23;20.93;;;;;;;;;;6277705;22;20388;-83
2021/06/16 02:26:02;;;;;;;22.43;21.03;;;;;;;;;;6277119;22;20381;-82
2021/06/16 02:28:30;;;;;;;23.20;21.80;;;;;;;;;;6277023;22;20410;-83
2021/06/16 02:30:57;;;;;;;23.20;21.60;;;;;;;;;;6277723;22;20357;-83
2021/06/16 02:33:25;;;;;;;22.40;20.77;;;;;;;;;;6277352;22;20895;-82
2021/06/16 02:35:54;;;;;;;22.50;21.03;;;;;;;;;;6250505;22;20729;-82
2021/06/16 02:38:23;;;;;;;23.30;21.70;;;;;;;;;;6277085;22;20444;-82
2021/06/16 02:40:51;;;;;;;22.40;20.90;;;;;;;;;;6277185;22;20406;-82
2021/06/16 02:43:19;;;;;;;23.03;21.37;;;;;;;;;;6277489;22;20715;-83
2021/06/16 02:45:48;;;;;;;22.10;20.60;;;;;;;;;;6277098;22;20737;-82
2021/06/16 02:48:16;;;;;;;23.07;21.40;;;;;;;;;;6277431;22;20719;-82
2021/06/16 02:50:45;;;;;;;24.40;22.50;;;;;;;;;;6277517;22;20381;-83
2021/06/16 02:53:17;;;;;;;22.43;21.00;;;;;;;;;;6277104;22;20941;-82
2021/06/16 02:55:45;;;;;;;23.00;21.43;;;;;;;;;;6250529;22;20389;-83
2021/06/16 02:58:13;;;;;;;23.43;21.83;;;;;;;;;;6277259;22;20437;-83
2021/06/16 03:00:40;;;;;;;22.90;21.40;;;;;;;;;;6277232;22;20447;-82
2021/06/16 03:03:09;;;;;;;23.23;21.30;;;;;;;;;;6277327;22;20376;-82
2021/06/16 03:05:37;;;;;;;23.70;21.83;;;;;;;;;;6276853;22;20408;-83
2021/06/16 03:08:06;;;;;;;22.60;21.00;;;;;;;;;;6277047;22;20935;-82
2021/06/16 03:10:35;;;;;;;22.47;21.17;;;;;;;;;;6277482;22;20394;-83
2021/06/16 03:13:03;;;;;;;22.97;21.50;;;;;;;;;;6276907;22;20886;-83
2021/06/16 03:15:31;;;;;;;24.00;21.93;;;;;;;;;;6277836;22;20374;-82
2021/06/16 03:17:59;;;;;;;22.17;20.60;;;;;;;;;;6276992;22;20949;-82
2021/06/16 03:20:27;;;;;;;22.63;21.13;;;;;;;;;;6277388;22;20361;-82
2021/06/16 03:22:56;;;;;;;22.90;21.40;;;;;;;;;;6277939;22;20398;-82
2021/06/16 03:25:23;;;;;;;21.40;20.20;;;;;;;;;;6251913;22;20411;-83
2021/06/16 03:27:53;;;;;;;22.77;21.17;;;;;;;;;;6278797;22;20437;-82
2021/06/16 03:30:21;;;;;;;22.60;21.00;;;;;;;;;;6279257;22;20393;-81
2021/06/16 03:32:50;;;;;;;23.87;21.40;;;;;;;;;;6278837;22;20398;-80
2021/06/16 03:35:18;;;;;;;23.50;21.60;;;;;;;;;;6279227;22;20441;-83
2021/06/16 03:37:46;;;;;;;23.33;21.37;;;;;;;;;;6252056;22;20777;-82
2021/06/16 03:40:14;;;;;;;24.07;22.47;;;;;;;;;;6252287;22;20382;-82
2021/06/16 03:42:43;;;;;;;23.63;21.77;;;;;;;;;;6279233;22;20404;-80
2021/06/16 03:45:13;;;;;;;23.33;21.60;;;;;;;;;;6278744;22;20853;-81
2021/06/16 03:47:41;;;;;;;22.53;21.23;;;;;;;;;;6279051;22;20395;-81
2021/06/16 03:50:10;;;;;;;22.80;21.40;;;;;;;;;;6279111;22;20407;-81
2021/06/16 03:52:38;;;;;;;22.97;21.57;;;;;;;;;;6278979;22;20373;-81
2021/06/16 03:55:06;;;;;;;21.73;20.43;;;;;;;;;;6278814;22;20415;-81
2021/06/16 03:57:34;;;;;;;21.70;20.23;;;;;;;;;;6278964;22;20409;-80
2021/06/16 04:00:03;;;;;;;22.80;21.30;;;;;;;;;;6278863;22;20443;-81
2021/06/16 04:02:32;;;;;;;23.13;21.40;;;;;;;;;;6278595;22;20973;-81
2021/06/16 04:05:02;;;;;;;22.30;20.60;;;;;;;;;;6279015;22;20417;-81
2021/06/16 04:07:30;;;;;;;22.30;21.00;;;;;;;;;;6252036;22;20884;-81
2021/06/16 04:09:57;;;;;;;21.90;20.50;;;;;;;;;;6278814;22;20493;-81
2021/06/16 04:12:25;;;;;;;22.37;20.80;;;;;;;;;;6278463;22;20847;-81
2021/06/16 04:14:52;;;;;;;22.60;21.20;;;;;;;;;;6278804;22;20401;-81
2021/06/16 04:17:20;;;;;;;22.57;21.00;;;;;;;;;;6278650;22;20408;-81
2021/06/16 04:19:50;;;;;;;23.17;21.20;;;;;;;;;;6278674;22;20425;-81
2021/06/16 04:22:18;;;;;;;23.30;21.40;;;;;;;;;;6278419;22;20361;-80
2021/06/16 04:24:46;;;;;;;23.03;21.47;;;;;;;;;;6278216;22;20389;-81
2021/06/16 04:27:13;;;;;;;24.27;22.37;;;;;;;;;;6278189;22;20449;-81
2021/06/16 04:29:41;;;;;;;25.20;23.50;;;;;;;;;;6278771;22;20381;-81
2021/06/16 04:32:10;;;;;;;24.20;22.57;;;;;;;;;;6278777;22;20426;-81
2021/06/16 04:34:37;;;;;;;23.30;21.90;;;;;;;;;;6278371;22;20382;-80
2021/06/16 04:37:06;;;;;;;23.37;21.57;;;;;;;;;;6278441;22;20678;-81
2021/06/16 04:39:34;;;;;;;22.67;21.27;;;;;;;;;;6278462;22;20443;-81
2021/06/16 04:42:02;;;;;;;21.80;20.47;;;;;;;;;;6278793;22;20377;-81
2021/06/16 04:44:29;;;;;;;23.27;21.67;;;;;;;;;;6278121;22;20373;-81
2021/06/16 04:46:57;;;;;;;21.50;20.00;;;;;;;;;;6279526;22;20374;-81
2021/06/16 04:49:24;;;;;;;22.37;21.00;;;;;;;;;;6278567;22;20369;-81
2021/06/16 04:51:53;;;;;;;22.57;21.07;;;;;;;;;;6278426;22;20403;-81
2021/06/16 04:54:21;;;;;;;22.53;20.90;;;;;;;;;;6278101;22;20376;-81
2021/06/16 04:56:49;;;;;;;22.03;20.83;;;;;;;;;;6277762;22;20383;-81
2021/06/16 04:59:16;;;;;;;22.40;20.90;;;;;;;;;;6278213;22;20951;-81
2021/06/16 05:01:44;;;;;;;21.63;20.13;;;;;;;;;;6278295;22;20398;-81
2021/06/16 05:04:11;;;;;;;21.83;20.60;;;;;;;;;;6277835;22;20372;-81
2021/06/16 05:06:39;;;;;;;22.27;20.87;;;;;;;;;;6277332;22;20413;-81
2021/06/16 05:09:06;;;;;;;22.93;21.33;;;;;;;;;;6278645;22;20392;-81
2021/06/16 05:11:35;;;;;;;22.77;21.10;;;;;;;;;;6250935;22;20410;-81
2021/06/16 05:14:02;;;;;;;22.40;20.40;;;;;;;;;;6278094;22;20461;-81
2021/06/16 05:16:30;;;;;;;21.70;20.40;;;;;;;;;;6277956;22;20397;-81
2021/06/16 05:18:58;;;;;;;22.17;20.60;;;;;;;;;;6277719;22;20438;-81
2021/06/16 05:21:25;;;;;;;21.97;20.67;;;;;;;;;;6278119;22;20482;-82
2021/06/16 05:23:53;;;;;;;22.50;21.03;;;;;;;;;;6277689;22;20376;-81
2021/06/16 05:26:20;;;;;;;21.90;20.47;;;;;;;;;;6276623;22;20374;-82
2021/06/16 05:28:49;;;;;;;20.83;19.53;;;;;;;;;;6277712;22;20445;-81
2021/06/16 05:31:16;;;;;;;21.23;19.77;;;;;;;;;;6277934;22;20370;-82
2021/06/16 05:33:44;;;;;;;21.80;20.50;;;;;;;;;;6277823;22;20361;-81
2021/06/16 05:36:11;;;;;;;21.47;20.17;;;;;;;;;;6250844;22;20713;-81
2021/06/16 05:38:39;;;;;;;20.57;19.33;;;;;;;;;;6277721;22;20409;-81
2021/06/16 05:41:06;;;;;;;22.17;20.60;;;;;;;;;;6277656;22;20369;-82
2021/06/16 05:43:34;;;;;;;21.70;20.50;;;;;;;;;;6277652;22;20405;-81
2021/06/16 05:46:03;;;;;;;21.20;19.90;;;;;;;;;;6277513;22;20391;-82
2021/06/16 05:48:30;;;;;;;22.67;20.97;;;;;;;;;;6277006;22;20444;-81
2021/06/16 05:50:58;;;;;;;22.37;20.63;;;;;;;;;;6277513;22;20840;-82
2021/06/16 05:53:25;;;;;;;22.23;20.70;;;;;;;;;;6277533;22;20377;-81
2021/06/16 05:55:52;;;;;;;21.80;20.27;;;;;;;;;;6277315;22;20867;-82
2021/06/16 05:58:20;;;;;;;22.40;20.90;;;;;;;;;;6277759;22;20377;-81
2021/06/16 06:00:47;;;;;;;21.70;20.10;;;;;;;;;;6277764;22;20452;-82
2021/06/16 06:03:16;;;;;;;22.13;20.73;;;;;;;;;;6277831;22;20403;-82
2021/06/16 06:05:43;;;;;;;21.87;20.27;;;;;;;;;;6277670;22;20400;-81
2021/06/16 06:08:11;;;;;;;21.40;20.00;;;;;;;;;;6277267;22;20366;-81
2021/06/16 06:10:38;;;;;;;21.87;20.40;;;;;;;;;;6277605;22;20427;-81
2021/06/16 06:13:05;;;;;;;22.37;20.93;;;;;;;;;;6277412;22;20388;-81
2021/06/16 06:15:33;;;;;;;21.87;20.67;;;;;;;;;;6277681;22;20398;-80
2021/06/16 06:18:00;;;;;;;21.57;20.30;;;;;;;;;;6277462;22;20941;-80
2021/06/16 06:20:29;;;;;;;21.40;19.87;;;;;;;;;;6277426;22;20443;-81
2021/06/16 06:22:56;;;;;;;22.17;20.87;;;;;;;;;;6250677;22;20399;-81
2021/06/16 06:25:24;;;;;;;22.60;21.00;;;;;;;;;;6277485;22;20459;-81
2021/06/16 06:27:51;;;;;;;22.50;20.80;;;;;;;;;;6277242;22;20418;-82
2021/06/16 06:30:19;;;;;;;21.43;20.23;;;;;;;;;;6277370;22;20369;-81
2021/06/16 06:32:46;;;;;;;21.30;19.93;;;;;;;;;;6277493;22;20370;-82
2021/06/16 06:35:14;;;;;;;22.10;20.70;;;;;;;;;;6250738;22;20403;-82
2021/06/16 06:37:43;;;;;;;21.57;20.10;;;;;;;;;;6277243;22;20370;-82
2021/06/16 06:40:11;;;;;;;21.23;20.03;;;;;;;;;;6276883;22;20446;-82
2021/06/16 06:42:38;;;;;;;21.30;19.70;;;;;;;;;;6277114;22;20396;-83
2021/06/16 06:45:06;;;;;;;22.03;20.63;;;;;;;;;;6277473;22;20375;-82
2021/06/16 06:47:34;;;;;;;21.70;20.17;;;;;;;;;;6277549;22;20367;-81
2021/06/16 06:50:01;;;;;;;22.67;21.03;;;;;;;;;;6276655;22;20373;-81
2021/06/16 06:52:28;;;;;;;22.23;20.70;;;;;;;;;;6277446;22;20378;-82
2021/06/16 06:54:58;;;;;;;21.73;20.33;;;;;;;;;;6276749;22;20390;-82
2021/06/16 06:57:25;;;;;;;21.97;20.37;;;;;;;;;;6280294;22;20396;-81
2021/06/16 06:59:53;;;;;;;21.03;19.60;;;;;;;;;;6280706;22;20729;-82
2021/06/16 07:02:20;;;;;;;21.13;19.73;;;;;;;;;;6280610;22;20370;-82
2021/06/16 07:04:47;;;;;;;22.03;20.33;;;;;;;;;;6279890;22;20394;-80
2021/06/16 07:07:14;;;;;;;21.90;20.50;;;;;;;;;;6279945;22;20426;-80
2021/06/16 07:09:44;;;;;;;20.83;19.60;;;;;;;;;;6280694;22;20403;-81
2021/06/16 07:12:13;;;;;;;21.13;19.83;;;;;;;;;;6280350;22;20386;-81
2021/06/16 07:14:41;;;;;;;22.20;20.57;;;;;;;;;;6280696;22;20378;-81
2021/06/16 07:17:08;;;;;;;22.03;20.63;;;;;;;;;;6280787;22;20711;-81
2021/06/16 07:19:36;;;;;;;22.40;20.80;;;;;;;;;;6280266;22;20431;-80
2021/06/16 07:22:04;;;;;;;23.10;21.60;;;;;;;;;;6280319;22;20840;-81
2021/06/16 07:24:31;;;;;;;23.57;21.80;;;;;;;;;;6280257;22;20378;-81
2021/06/16 07:26:58;;;;;;;23.93;21.93;;;;;;;;;;6279694;22;20782;-80
2021/06/16 07:29:27;;;;;;;24.20;22.40;;;;;;;;;;6280630;22;20375;-82
2021/06/16 07:31:55;;;;;;;23.80;22.20;;;;;;;;;;6280536;22;20855;-80
2021/06/16 07:34:22;;;;;;;22.30;20.90;;;;;;;;;;6253454;22;20374;-81
2021/06/16 07:36:50;;;;;;;22.90;21.50;;;;;;;;;;6280183;22;20375;-81
2021/06/16 07:39:18;;;;;;;22.37;20.97;;;;;;;;;;6280164;22;20470;-81
2021/06/16 07:41:45;;;;;;;24.10;22.30;;;;;;;;;;6280281;22;20454;-81
2021/06/16 07:44:12;;;;;;;24.20;22.53;;;;;;;;;;6280473;22;20845;-81
2021/06/16 07:46:41;;;;;;;23.90;22.37;;;;;;;;;;6280094;22;20367;-81
2021/06/16 07:49:08;;;;;;;23.80;22.00;;;;;;;;;;6280181;22;20375;-81
2021/06/16 07:51:36;;;;;;;24.73;23.00;;;;;;;;;;6280107;22;20384;-81
2021/06/16 07:54:03;;;;;;;24.67;22.83;;;;;;;;;;6280525;22;20841;-81
2021/06/16 07:56:31;;;;;;;23.93;22.20;;;;;;;;;;6280004;22;20824;-92
2021/06/16 07:58:58;;;;;;;23.70;22.10;;;;;;;;;;6280098;22;20367;-82
2021/06/16 08:01:25;;;;;;;24.03;22.10;;;;;;;;;;6253841;22;20372;-81
2021/06/16 08:03:54;;;;;;;24.00;22.20;;;;;;;;;;6279929;22;20874;-81
2021/06/16 08:06:22;;;;;;;24.20;22.20;;;;;;;;;;6280023;22;20375;-81
2021/06/16 08:08:49;;;;;;;23.20;21.80;;;;;;;;;;6277590;22;20699;-81
2021/06/16 08:11:17;;;;;;;25.87;23.47;;;;;;;;;;6278544;22;20371;-81
2021/06/16 08:13:44;;;;;;;24.97;22.90;;;;;;;;;;6278403;22;20836;-81
2021/06/16 08:16:14;;;;;;;23.87;22.07;;;;;;;;;;6278714;22;20399;-80
2021/06/16 08:18:41;;;;;;;24.33;22.53;;;;;;;;;;6278524;22;20421;-81
2021/06/16 08:21:10;;;;;;;24.37;22.57;;;;;;;;;;6278177;22;20442;-81
2021/06/16 08:23:37;;;;;;;24.77;22.97;;;;;;;;;;6278710;22;20398;-81
2021/06/16 08:26:05;;;;;;;23.87;22.30;;;;;;;;;;6278082;22;20851;-82
2021/06/16 08:28:32;;;;;;;25.50;23.60;;;;;;;;;;6278400;22;20440;-81
2021/06/16 08:31:00;;;;;;;24.27;22.60;;;;;;;;;;6252062;22;20385;-81
2021/06/16 08:33:27;;;;;;;24.33;22.60;;;;;;;;;;6278238;22;20372;-81
2021/06/16 08:35:54;;;;;;;24.67;22.87;;;;;;;;;;6278108;22;20400;-81
2021/06/16 08:38:23;;;;;;;25.30;23.80;;;;;;;;;;6278567;22;20378;-81
2021/06/16 08:40:50;;;;;;;25.03;23.13;;;;;;;;;;6278079;22;20452;-81
2021/06/16 08:43:18;;;;;;;24.67;22.83;;;;;;;;;;6278122;22;20379;-81
2021/06/16 08:45:45;;;;;;;25.50;23.87;;;;;;;;;;6278372;22;20397;-81
2021/06/16 08:48:13;;;;;;;25.20;23.50;;;;;;;;;;6278456;22;20890;-81
2021/06/16 08:50:40;;;;;;;26.63;24.33;;;;;;;;;;6279019;22;20770;-81
2021/06/16 08:53:08;;;;;;;25.50;23.77;;;;;;;;;;6251427;22;20409;-81
2021/06/16 08:55:37;;;;;;;25.20;23.43;;;;;;;;;;6278124;22;20441;-81
2021/06/16 08:58:04;;;;;;;25.57;23.97;;;;;;;;;;6278045;22;20450;-81
2021/06/16 09:00:32;;;;;;;26.27;24.23;;;;;;;;;;6277987;22;20407;-81
2021/06/16 09:02:59;;;;;;;25.20;23.30;;;;;;;;;;6277797;22;20875;-81
2021/06/16 09:05:37;;;;;;;24.40;22.77;;;;;;;;;;6278120;22;20704;-81
2021/06/16 09:08:14;;;;;;;25.47;23.50;;;;;;;;;;6278172;22;20458;-81
2021/06/16 09:10:46;;;;;;;25.67;23.70;;;;;;;;;;6277822;22;20433;-81
2021/06/16 09:13:24;;;;;;;25.13;23.43;;;;;;;;;;6278011;22;20398;-81
2021/06/16 09:15:52;;;;;;;26.30;24.10;;;;;;;;;;6278301;22;20363;-81
2021/06/16 09:18:19;;;;;;;25.67;23.60;;;;;;;;;;6278160;22;20367;-82
2021/06/16 09:20:47;;;;;;;24.63;22.73;;;;;;;;;;6277244;22;20478;-81
2021/06/16 09:23:16;;;;;;;25.03;23.43;;;;;;;;;;6278111;22;20401;-81
2021/06/16 09:25:46;;;;;;;24.40;22.90;;;;;;;;;;6277876;22;20410;-81
2021/06/16 09:28:14;;;;;;;24.37;22.87;;;;;;;;;;6277668;22;20441;-81
2021/06/16 09:30:45;;;;;;;26.03;24.17;;;;;;;;;;6277513;22;20409;-81
2021/06/16 09:33:16;;;;;;;25.13;23.40;;;;;;;;;;6277100;22;20898;-81
2021/06/16 09:35:45;;;;;;;26.03;24.00;;;;;;;;;;6276440;22;20412;-81
2021/06/16 09:38:14;;;;;;;25.47;23.80;;;;;;;;;;6277380;22;20390;-81
2021/06/16 09:40:42;;;;;;;25.20;23.53;;;;;;;;;;6277071;22;20933;-81
2021/06/16 09:43:12;;;;;;;25.87;24.10;;;;;;;;;;6277134;22;20720;-81
2021/06/16 09:45:40;;;;;;;25.53;23.83;;;;;;;;;;6277314;22;20365;-81
2021/06/16 09:48:24;;;;;;;25.90;24.20;;;;;;;;;;6277481;22;20372;-81
2021/06/16 09:50:53;;;;;;;24.83;23.13;;;;;;;;;;6277318;22;20364;-81
2021/06/16 09:53:20;;;;;;;26.17;24.60;;;;;;;;;;6277880;22;20369;-81
2021/06/16 09:55:47;;;;;;;24.13;22.80;;;;;;;;;;6277125;22;20369;-81
2021/06/16 09:58:19;;;;;;;25.73;23.90;;;;;;;;;;6277957;22;20372;-81
2021/06/16 10:00:48;;;;;;;26.70;25.00;;;;;;;;;;6278010;22;20419;-80
2021/06/16 10:03:16;;;;;;;25.00;23.40;;;;;;;;;;6277679;22;20391;-80
2021/06/16 10:06:03;;;;;;;27.17;25.30;;;;;;;;;;6277291;22;20398;-81
2021/06/16 10:08:30;;;;;;;26.37;24.40;;;;;;;;;;6277651;22;20389;-81
2021/06/16 10:10:57;;;;;;;26.17;24.67;;;;;;;;;;6277263;22;20401;-82
2021/06/16 10:13:27;;;;;;;26.50;24.87;;;;;;;;;;6277609;22;20390;-81
2021/06/16 10:15:55;;;;;;;26.53;24.73;;;;;;;;;;6276959;22;20369;-81
2021/06/16 10:18:23;;;;;;;28.33;25.83;;;;;;;;;;6276908;22;20379;-81
2021/06/16 10:20:50;;;;;;;25.93;24.27;;;;;;;;;;6276906;22;20485;-81
2021/06/16 10:23:18;;;;;;;26.80;24.90;;;;;;;;;;6277465;22;20384;-81
2021/06/16 10:25:46;;;;;;;25.73;23.67;;;;;;;;;;6276956;22;20401;-81
2021/06/16 10:28:14;;;;;;;26.03;24.40;;;;;;;;;;6277162;22;20418;-81
2021/06/16 10:30:44;;;;;;;26.67;24.87;;;;;;;;;;6276824;22;20384;-80
2021/06/16 10:33:31;;;;;;;26.27;24.60;;;;;;;;;;6277000;22;20379;-81
2021/06/16 10:36:08;;;;;;;27.10;25.40;;;;;;;;;;6276969;22;20912;-81
2021/06/16 10:38:36;;;;;;;26.43;24.83;;;;;;;;;;6277726;22;20400;-81
2021/06/16 10:41:03;;;;;;;26.27;24.57;;;;;;;;;;6277277;22;20412;-81
2021/06/16 10:43:32;;;;;;;26.10;24.60;;;;;;;;;;6277000;22;20379;-81
2021/06/16 10:46:02;;;;;;;26.00;24.20;;;;;;;;;;6276760;22;20380;-81
2021/06/16 10:48:45;;;;;;;27.17;25.17;;;;;;;;;;6277420;22;20368;-81
2021/06/16 10:51:23;;;;;;;26.77;24.97;;;;;;;;;;6276987;22;20405;-81
2021/06/16 10:54:05;;;;;;;27.17;25.00;;;;;;;;;;6277277;22;20369;-81
2021/06/16 10:56:43;;;;;;;26.90;25.10;;;;;;;;;;6275997;22;20415;-81
2021/06/16 10:59:10;;;;;;;26.73;25.03;;;;;;;;;;6277322;22;20368;-81
2021/06/16 11:01:52;;;;;;;26.80;25.20;;;;;;;;;;6276834;22;20954;-81
2021/06/16 11:04:31;;;;;;;27.80;25.90;;;;;;;;;;6275189;22;20391;-82
2021/06/16 11:06:58;;;;;;;26.97;25.30;;;;;;;;;;6277261;22;20462;-81
2021/06/16 11:09:44;;;;;;;26.43;24.83;;;;;;;;;;6276866;22;20369;-81
2021/06/16 11:12:12;;;;;;;26.80;25.00;;;;;;;;;;6276970;22;20398;-81
2021/06/16 11:14:47;;;;;;;27.77;25.87;;;;;;;;;;6277420;22;20383;-80
2021/06/16 11:17:29;;;;;;;28.07;26.20;;;;;;;;;;6277238;22;20482;-81
2021/06/16 11:19:59;;;;;;;27.80;25.90;;;;;;;;;;6276069;22;20694;-81
2021/06/16 11:22:33;;;;;;;26.67;24.73;;;;;;;;;;6276684;22;20439;-81
2021/06/16 11:25:08;;;;;;;28.03;26.30;;;;;;;;;;6276989;22;20375;-81
2021/06/16 11:27:55;;;;;;;28.03;26.30;;;;;;;;;;6276524;22;21002;-81
2021/06/16 11:30:29;;;;;;;29.33;27.13;;;;;;;;;;6277130;22;20400;-81
2021/06/16 11:33:28;;;;;;;29.47;27.40;;;;;;;;;;6276815;22;20380;-81
2021/06/16 11:35:59;;;;;;;27.70;26.00;;;;;;;;;;6124175;23;20440;-81
2021/06/16 11:38:29;;;;;;;27.57;25.77;;;;;;;;;;6124373;23;20385;-81
2021/06/16 11:40:57;;;;;;;28.33;26.50;;;;;;;;;;6123964;23;20975;-81
2021/06/16 11:43:31;;;;;;;29.17;27.07;;;;;;;;;;6124660;23;20393;-81
2021/06/16 11:45:59;;;;;;;27.87;26.00;;;;;;;;;;6125894;23;20374;-81
2021/06/16 11:48:26;;;;;;;27.90;25.70;;;;;;;;;;6125776;23;20435;-81
2021/06/16 11:50:54;;;;;;;27.40;25.70;;;;;;;;;;6125885;23;20516;-82
2021/06/16 11:53:30;;;;;;;28.73;26.53;;;;;;;;;;6126180;23;20372;-81
2021/06/16 11:55:58;;;;;;;27.40;25.50;;;;;;;;;;6126055;23;20401;-86
2021/06/16 11:58:26;;;;;;;28.60;26.70;;;;;;;;;;6126838;23;20421;-82
2021/06/16 12:00:55;;;;;;;28.47;26.67;;;;;;;;;;6125624;23;20421;-82
2021/06/16 12:03:22;;;;;;;26.67;24.87;;;;;;;;;;6126058;23;20389;-81
2021/06/16 12:06:00;;;;;;;28.87;26.73;;;;;;;;;;6101615;23;20397;-82
2021/06/16 12:08:29;;;;;;;28.57;26.67;;;;;;;;;;6125703;23;20404;-81
2021/06/16 12:10:57;;;;;;;29.20;27.13;;;;;;;;;;6257638;22;20392;-81
2021/06/16 12:13:24;;;;;;;27.33;25.53;;;;;;;;;;6278257;22;20481;-81
2021/06/16 12:15:52;;;;;;;27.50;25.57;;;;;;;;;;6278024;22;20757;-81
2021/06/16 12:18:19;;;;;;;27.70;25.63;;;;;;;;;;6278203;22;20885;-81
2021/06/16 12:20:47;;;;;;;28.00;26.30;;;;;;;;;;6278622;22;20441;-81
2021/06/16 12:23:23;;;;;;;29.33;27.33;;;;;;;;;;6278600;22;20377;-81
2021/06/16 12:25:52;;;;;;;26.43;24.57;;;;;;;;;;6278307;22;20373;-81
2021/06/16 12:28:20;;;;;;;27.23;25.57;;;;;;;;;;6278495;22;20466;-81
2021/06/16 12:30:47;;;;;;;26.50;24.87;;;;;;;;;;6278929;22;20392;-82
2021/06/16 12:33:18;;;;;;;27.90;26.10;;;;;;;;;;6278388;22;20358;-81
2021/06/16 12:35:58;;;;;;;27.80;25.90;;;;;;;;;;6252168;22;20360;-82
2021/06/16 12:38:35;;;;;;;27.53;25.57;;;;;;;;;;6278150;22;20456;-82
2021/06/16 12:41:04;;;;;;;28.33;26.63;;;;;;;;;;6278149;22;20477;-82
2021/06/16 12:43:31;;;;;;;29.37;27.30;;;;;;;;;;6278116;22;20368;-83
2021/06/16 12:45:59;;;;;;;27.83;25.93;;;;;;;;;;6278053;22;20891;-82
2021/06/16 12:48:27;;;;;;;28.20;26.40;;;;;;;;;;6278554;22;20378;-82
2021/06/16 12:50:56;;;;;;;29.17;27.10;;;;;;;;;;6278764;22;20416;-83
2021/06/16 12:53:23;;;;;;;28.23;26.50;;;;;;;;;;6278678;22;20367;-83
2021/06/16 12:55:53;;;;;;;28.70;26.80;;;;;;;;;;6277867;22;20834;-83
2021/06/16 12:58:23;;;;;;;29.10;27.07;;;;;;;;;;6278495;22;20456;-83
2021/06/16 13:00:50;;;;;;;30.27;28.20;;;;;;;;;;6278437;22;20400;-83
2021/06/16 13:03:19;;;;;;;29.03;27.07;;;;;;;;;;6278478;22;20397;-83
2021/06/16 13:05:52;;;;;;;30.27;28.27;;;;;;;;;;6278067;22;20386;-83
2021/06/16 13:08:33;;;;;;;29.33;27.30;;;;;;;;;;6278356;22;20368;-83
2021/06/16 13:11:00;;;;;;;28.90;26.90;;;;;;;;;;6277861;22;20462;-83
2021/06/16 13:13:29;;;;;;;28.57;26.77;;;;;;;;;;6278021;22;20367;-83
2021/06/16 13:15:57;;;;;;;28.00;26.20;;;;;;;;;;6277782;22;20400;-83
2021/06/16 13:18:28;;;;;;;28.30;26.40;;;;;;;;;;6278307;22;20718;-83
2021/06/16 13:20:58;;;;;;;28.53;26.63;;;;;;;;;;6277825;22;20682;-83
2021/06/16 13:23:26;;;;;;;30.23;28.00;;;;;;;;;;6277824;22;20375;-83
2021/06/16 13:25:54;;;;;;;28.10;26.13;;;;;;;;;;6277985;22;20371;-83
2021/06/16 13:28:23;;;;;;;28.07;26.10;;;;;;;;;;6277719;22;20411;-85
2021/06/16 13:30:52;;;;;;;28.50;26.60;;;;;;;;;;6277078;22;20435;-84
2021/06/16 13:33:35;;;;;;;27.90;25.97;;;;;;;;;;6277852;22;20835;-83
2021/06/16 13:36:02;;;;;;;28.33;26.53;;;;;;;;;;6277841;22;20521;-83
2021/06/16 13:38:30;;;;;;;27.87;26.17;;;;;;;;;;6278318;22;20410;-82
2021/06/16 13:40:58;;;;;;;27.73;26.13;;;;;;;;;;6277536;22;20412;-82
2021/06/16 13:43:25;;;;;;;28.67;26.87;;;;;;;;;;6277590;22;20384;-82
2021/06/16 13:45:54;;;;;;;30.93;28.37;;;;;;;;;;6277539;22;20390;-83
2021/06/16 13:48:21;;;;;;;29.40;27.50;;;;;;;;;;6277918;22;20697;-83
2021/06/16 13:50:49;;;;;;;28.20;26.40;;;;;;;;;;6277984;22;20370;-83
2021/06/16 13:53:16;;;;;;;29.00;26.93;;;;;;;;;;6278040;22;20401;-82
2021/06/16 13:55:44;;;;;;;30.23;28.13;;;;;;;;;;6277652;22;20368;-82
2021/06/16 13:58:12;;;;;;;29.13;27.20;;;;;;;;;;6277341;22;20900;-82
2021/06/16 14:00:39;;;;;;;28.30;26.60;;;;;;;;;;6248997;22;20719;-82
2021/06/16 14:03:09;;;;;;;27.07;25.50;;;;;;;;;;6277206;22;20413;-82
2021/06/16 14:05:36;;;;;;;28.00;26.20;;;;;;;;;;6277683;22;20444;-90
2021/06/16 14:08:04;;;;;;;27.23;25.43;;;;;;;;;;6277981;22;20394;-83
2021/06/16 14:10:31;;;;;;;27.93;26.33;;;;;;;;;;6277686;22;20364;-82
2021/06/16 14:13:00;;;;;;;27.87;25.97;;;;;;;;;;6277785;22;20706;-90
2021/06/16 14:15:28;;;;;;;28.70;26.80;;;;;;;;;;6277720;22;20398;-80
2021/06/16 14:17:55;;;;;;;28.33;26.57;;;;;;;;;;6277244;22;20397;-80
2021/06/16 14:20:24;;;;;;;28.67;26.60;;;;;;;;;;6277518;22;20400;-81
2021/06/16 14:22:52;;;;;;;28.23;26.30;;;;;;;;;;6277479;22;20737;-81
2021/06/16 14:25:22;;;;;;;27.57;25.83;;;;;;;;;;6276900;22;20680;-80
2021/06/16 14:27:49;;;;;;;27.97;26.07;;;;;;;;;;6277005;22;20490;-81